Time;durP1;ratioP1;P1;durP2;ratioP2;P2;SDS_P1;SDS_P2;PMS_P1;PMS_P2;Temp;Humidity;BMP_temperature;BMP_pressure;BME280_temperature;BME280_humidity;BME280_pressure;Samples;Min_cycle;Max_cycle;Signal;HPM_P1;HPM_P2
2023/04/13 00:00:14;;;;;;;0.10;0.10;;;5.30;99.90;;;;;;5065872;28;20191;-82
2023/04/13 00:02:40;;;;;;;0.10;0.10;;;5.20;99.90;;;;;;5064039;28;20198;-82
2023/04/13 00:05:08;;;;;;;0.10;0.10;;;5.30;99.90;;;;;;5062722;28;20211;-82
2023/04/13 00:07:37;;;;;;;0.10;0.10;;;5.30;99.90;;;;;;5066058;28;20188;-82
2023/04/13 00:10:08;;;;;;;0.10;0.10;;;5.30;99.90;;;;;;5062880;28;20202;-82
2023/04/13 00:12:34;;;;;;;0.10;0.10;;;5.30;99.90;;;;;;5065131;28;20628;-81
2023/04/13 00:15:00;;;;;;;0.00;0.00;;;5.00;99.90;;;;;;5062342;28;20562;-82
2023/04/13 00:17:27;;;;;;;0.10;0.10;;;4.90;99.90;;;;;;5066560;28;20201;-81
2023/04/13 00:19:52;;;;;;;0.10;0.10;;;4.80;99.90;;;;;;5062497;28;20191;-80
2023/04/13 00:22:19;;;;;;;0.10;0.10;;;4.70;99.90;;;;;;5064922;28;20271;-81
2023/04/13 00:24:44;;;;;;;0.03;0.03;;;4.70;99.90;;;;;;5065615;28;20227;-81
2023/04/13 00:27:10;;;;;;;0.10;0.10;;;4.60;99.90;;;;;;5057760;28;20186;-82
2023/04/13 00:29:36;;;;;;;0.10;0.10;;;4.50;99.90;;;;;;5059727;28;20181;-82
2023/04/13 00:32:03;;;;;;;0.10;0.10;;;4.50;99.90;;;;;;5062984;28;20209;-81
2023/04/13 00:34:28;;;;;;;0.00;0.00;;;4.50;99.90;;;;;;5059424;28;20210;-81
2023/04/13 00:36:54;;;;;;;0.10;0.10;;;4.50;99.90;;;;;;5061491;28;20186;-81
2023/04/13 00:39:22;;;;;;;0.10;0.10;;;4.60;99.90;;;;;;5059591;28;20198;-82
2023/04/13 00:41:49;;;;;;;0.10;0.10;;;4.60;99.90;;;;;;5058375;28;20194;-81
2023/04/13 00:44:18;;;;;;;0.10;0.10;;;4.70;99.90;;;;;;5059465;28;20281;-82
2023/04/13 00:46:49;;;;;;;0.10;0.10;;;4.70;99.90;;;;;;5060743;28;20194;-82
2023/04/13 00:49:14;;;;;;;0.10;0.10;;;4.60;99.90;;;;;;5062050;28;20210;-81
2023/04/13 00:51:43;;;;;;;0.07;0.07;;;4.70;99.90;;;;;;5063215;28;20245;-82
2023/04/13 00:54:15;;;;;;;0.00;0.00;;;4.70;99.90;;;;;;5063383;28;20204;-82
2023/04/13 00:56:42;;;;;;;0.00;0.00;;;4.80;99.90;;;;;;5063861;28;20181;-82
2023/04/13 00:59:11;;;;;;;0.10;0.10;;;4.80;99.90;;;;;;5058254;28;20204;-81
2023/04/13 01:01:45;;;;;;;0.10;0.10;;;4.90;99.90;;;;;;5059357;28;20217;-82
2023/04/13 01:04:17;;;;;;;0.07;0.07;;;5.00;99.90;;;;;;5058815;28;20694;-82
2023/04/13 01:06:49;;;;;;;0.10;0.10;;;5.30;99.90;;;;;;5062928;28;20196;-81
2023/04/13 01:09:18;;;;;;;0.10;0.10;;;5.50;99.90;;;;;;5063276;28;20200;-82
2023/04/13 01:11:43;;;;;;;0.10;0.10;;;5.60;99.90;;;;;;5056317;28;20218;-81
2023/04/13 01:14:23;;;;;;;0.10;0.10;;;5.50;99.90;;;;;;5063759;28;20314;-81
2023/04/13 01:16:55;;;;;;;0.10;0.10;;;5.60;99.90;;;;;;5080453;28;20184;-81
2023/04/13 01:20:08;;;;;;;0.10;0.10;;;5.60;99.90;;;;;;5063861;28;20171;-82
2023/04/13 01:22:36;;;;;;;0.07;0.07;;;5.70;99.90;;;;;;5064200;28;20176;-82
2023/04/13 01:25:36;;;;;;;0.00;0.00;;;5.60;99.90;;;;;;5062638;28;20221;-81
2023/04/13 01:28:06;;;;;;;0.10;0.10;;;5.50;99.90;;;;;;5061270;28;20220;-82
2023/04/13 01:30:34;;;;;;;0.10;0.10;;;5.50;99.90;;;;;;5059780;28;20395;-81
2023/04/13 01:33:01;;;;;;;0.10;0.10;;;5.50;99.90;;;;;;5062798;28;20213;-82
2023/04/13 01:35:28;;;;;;;0.10;0.10;;;5.50;99.90;;;;;;5062547;28;20206;-82
2023/04/13 01:37:54;;;;;;;0.10;0.10;;;5.50;99.90;;;;;;5062466;28;20186;-81
2023/04/13 01:40:24;;;;;;;0.10;0.10;;;5.40;99.90;;;;;;5057488;28;20182;-81
2023/04/13 01:42:51;;;;;;;0.10;0.10;;;5.50;99.90;;;;;;5062640;28;20187;-81
2023/04/13 01:45:28;;;;;;;0.10;0.10;;;5.50;99.90;;;;;;5060040;28;20276;-82
2023/04/13 01:48:20;;;;;;;0.00;0.00;;;5.50;99.90;;;;;;5062162;28;20182;-82
2023/04/13 01:50:56;;;;;;;0.00;0.00;;;5.40;99.90;;;;;;5021086;28;20194;-82
2023/04/13 01:53:29;;;;;;;0.00;0.00;;;5.40;99.90;;;;;;5062885;28;20241;-82
2023/04/13 01:55:55;;;;;;;0.10;0.10;;;5.40;99.90;;;;;;5058577;28;20190;-82
2023/04/13 01:58:26;;;;;;;0.00;0.00;;;5.30;99.90;;;;;;5057836;28;20249;-82
2023/04/13 02:00:55;;;;;;;0.10;0.10;;;5.40;99.90;;;;;;5058641;28;21023;-82
2023/04/13 02:03:21;;;;;;;0.10;0.10;;;5.50;99.90;;;;;;5062089;28;20315;-82
2023/04/13 02:05:47;;;;;;;0.10;0.10;;;5.60;99.90;;;;;;5063132;28;20194;-81
2023/04/13 02:08:14;;;;;;;0.00;0.00;;;5.70;99.90;;;;;;5062417;28;20219;-81
2023/04/13 02:10:41;;;;;;;0.00;0.00;;;5.80;99.90;;;;;;5062086;28;20212;-82
2023/04/13 02:13:08;;;;;;;0.00;0.00;;;6.00;99.90;;;;;;5065832;28;20221;-81
2023/04/13 02:15:34;;;;;;;0.10;0.10;;;6.10;99.90;;;;;;5065316;28;20191;-82
2023/04/13 02:18:00;;;;;;;0.10;0.10;;;6.30;99.90;;;;;;5063438;28;20186;-83
2023/04/13 02:20:26;;;;;;;0.10;0.10;;;6.40;99.90;;;;;;5066457;28;20214;-81
2023/04/13 02:22:51;;;;;;;0.10;0.10;;;6.50;99.90;;;;;;5063343;28;20191;-82
2023/04/13 02:25:17;;;;;;;0.03;0.03;;;6.60;99.90;;;;;;5065875;28;20207;-83
2023/04/13 02:27:44;;;;;;;0.10;0.10;;;6.60;99.90;;;;;;5064915;28;20193;-83
2023/04/13 02:30:10;;;;;;;0.07;0.07;;;6.70;99.90;;;;;;5065687;28;20232;-84
2023/04/13 02:32:38;;;;;;;0.10;0.10;;;6.80;99.90;;;;;;5066272;28;20236;-82
2023/04/13 02:35:04;;;;;;;0.00;0.00;;;6.90;99.90;;;;;;5064201;28;20247;-80
2023/04/13 02:37:31;;;;;;;0.10;0.10;;;7.00;99.90;;;;;;5062336;28;20212;-82
2023/04/13 02:39:56;;;;;;;0.10;0.10;;;7.00;99.90;;;;;;5066581;28;20211;-82
2023/04/13 02:42:23;;;;;;;0.00;0.00;;;7.10;99.90;;;;;;5062644;28;20224;-81
2023/04/13 02:44:51;;;;;;;0.10;0.10;;;7.20;99.90;;;;;;5060009;28;20331;-82
2023/04/13 02:47:16;;;;;;;0.00;0.00;;;7.20;99.90;;;;;;5064374;28;20290;-81
2023/04/13 02:49:44;;;;;;;0.10;0.10;;;7.30;99.90;;;;;;5064176;28;20311;-82
2023/04/13 02:52:10;;;;;;;0.03;0.03;;;7.40;99.90;;;;;;5065082;28;20637;-82
2023/04/13 02:54:36;;;;;;;0.10;0.10;;;7.40;99.90;;;;;;5066289;28;20314;-81
2023/04/13 02:57:01;;;;;;;0.00;0.00;;;7.50;99.90;;;;;;5063055;28;20631;-82
2023/04/13 02:59:27;;;;;;;0.10;0.10;;;7.50;99.90;;;;;;5066443;28;20178;-82
2023/04/13 03:01:57;;;;;;;0.10;0.10;;;7.60;99.90;;;;;;5060358;28;20196;-82
2023/04/13 03:04:23;;;;;;;0.10;0.10;;;7.60;99.90;;;;;;5065811;28;20197;-81
2023/04/13 03:06:49;;;;;;;0.10;0.10;;;7.70;99.90;;;;;;5065619;28;20195;-82
2023/04/13 03:09:15;;;;;;;0.10;0.10;;;7.70;99.90;;;;;;5063025;28;20215;-81
2023/04/13 03:11:40;;;;;;;0.10;0.10;;;7.80;99.90;;;;;;5059203;28;20258;-81
2023/04/13 03:14:06;;;;;;;0.10;0.10;;;7.70;99.90;;;;;;5061790;28;20330;-82
2023/04/13 03:16:33;;;;;;;0.10;0.10;;;7.80;99.90;;;;;;5064195;28;20591;-81
2023/04/13 03:18:58;;;;;;;0.10;0.10;;;7.80;99.90;;;;;;5063045;28;20213;-81
2023/04/13 03:21:24;;;;;;;0.00;0.00;;;7.70;99.90;;;;;;5061810;28;20218;-81
2023/04/13 03:23:49;;;;;;;0.00;0.00;;;7.80;99.90;;;;;;5063720;28;20250;-81
2023/04/13 03:26:15;;;;;;;0.10;0.10;;;7.80;99.90;;;;;;5064166;28;20291;-81
2023/04/13 03:28:40;;;;;;;0.10;0.10;;;7.90;99.90;;;;;;5060672;28;20194;-81
2023/04/13 03:31:06;;;;;;;0.10;0.10;;;7.80;99.90;;;;;;5062078;28;20186;-81
2023/04/13 03:33:31;;;;;;;0.10;0.10;;;7.90;99.90;;;;;;5067128;28;20253;-81
2023/04/13 03:35:57;;;;;;;0.07;0.07;;;7.90;99.90;;;;;;5063505;28;20685;-80
2023/04/13 03:38:22;;;;;;;0.10;0.10;;;7.90;99.90;;;;;;5064348;28;20192;-81
2023/04/13 03:40:48;;;;;;;0.10;0.10;;;7.90;99.90;;;;;;5063616;28;20557;-80
2023/04/13 03:43:14;;;;;;;0.10;0.10;;;7.90;99.90;;;;;;5064848;28;20212;-81
2023/04/13 03:45:40;;;;;;;0.10;0.10;;;7.90;99.90;;;;;;5065091;28;20188;-81
2023/04/13 03:48:05;;;;;;;0.10;0.10;;;7.90;99.90;;;;;;5064105;28;20191;-81
2023/04/13 03:50:31;;;;;;;0.10;0.10;;;7.90;99.90;;;;;;5060587;28;20926;-81
2023/04/13 03:52:57;;;;;;;0.10;0.10;;;7.90;99.90;;;;;;5057694;28;20209;-80
2023/04/13 03:55:22;;;;;;;0.10;0.10;;;7.90;99.90;;;;;;5067279;28;20636;-81
2023/04/13 03:57:48;;;;;;;0.10;0.10;;;7.90;99.90;;;;;;5066365;28;20881;-81
2023/04/13 04:00:14;;;;;;;0.10;0.10;;;7.80;99.90;;;;;;5065414;28;20300;-80
2023/04/13 04:02:43;;;;;;;0.10;0.10;;;7.80;99.90;;;;;;5060424;28;20207;-81
2023/04/13 04:05:09;;;;;;;0.10;0.10;;;7.80;99.90;;;;;;5066440;28;20655;-81
2023/04/13 04:07:34;;;;;;;0.10;0.10;;;7.80;99.90;;;;;;5067247;28;20180;-80
2023/04/13 04:10:00;;;;;;;0.10;0.10;;;7.80;99.90;;;;;;5061024;28;20233;-81
2023/04/13 04:12:26;;;;;;;0.00;0.00;;;7.80;99.90;;;;;;5066731;28;20234;-81
2023/04/13 04:14:51;;;;;;;0.00;0.00;;;7.90;99.90;;;;;;5066170;28;20212;-81
2023/04/13 04:17:17;;;;;;;0.10;0.10;;;7.90;99.90;;;;;;5063834;28;20440;-81
2023/04/13 04:19:42;;;;;;;0.10;0.10;;;8.00;99.90;;;;;;5064370;28;20173;-81
2023/04/13 04:22:08;;;;;;;0.10;0.10;;;8.00;99.90;;;;;;5064840;28;20207;-80
2023/04/13 04:24:34;;;;;;;0.10;0.10;;;7.80;99.90;;;;;;5062075;28;20269;-81
2023/04/13 04:27:00;;;;;;;0.10;0.10;;;7.60;99.90;;;;;;5065786;28;20207;-81
2023/04/13 04:29:34;;;;;;;0.10;0.10;;;7.50;99.90;;;;;;5063001;28;20183;-80
2023/04/13 04:32:04;;;;;;;0.10;0.10;;;7.50;99.90;;;;;;5065220;28;20230;-81
2023/04/13 04:34:30;;;;;;;0.10;0.10;;;7.50;99.90;;;;;;5064374;28;20235;-81
2023/04/13 04:36:56;;;;;;;0.10;0.10;;;7.40;99.90;;;;;;5058809;28;21153;-81
2023/04/13 04:39:22;;;;;;;0.10;0.10;;;7.60;99.90;;;;;;5061936;28;20184;-81
2023/04/13 04:41:54;;;;;;;0.10;0.10;;;7.60;99.90;;;;;;5064552;28;20672;-80
2023/04/13 04:44:23;;;;;;;0.10;0.10;;;7.80;99.90;;;;;;5057962;28;20291;-81
2023/04/13 04:46:51;;;;;;;0.00;0.00;;;7.90;99.90;;;;;;5066891;28;20184;-81
2023/04/13 04:49:17;;;;;;;0.10;0.10;;;8.00;99.90;;;;;;5064267;28;20193;-82
2023/04/13 04:51:43;;;;;;;0.10;0.10;;;8.10;99.90;;;;;;5066308;28;20554;-81
2023/04/13 04:54:08;;;;;;;0.10;0.10;;;8.10;99.90;;;;;;5067679;28;20208;-81
2023/04/13 04:56:34;;;;;;;0.10;0.10;;;8.20;99.90;;;;;;5066836;28;20181;-82
2023/04/13 04:58:59;;;;;;;0.10;0.10;;;8.30;99.90;;;;;;5063272;28;20181;-82
2023/04/13 05:01:25;;;;;;;0.10;0.10;;;8.30;99.90;;;;;;5059736;28;20188;-81
2023/04/13 05:03:53;;;;;;;0.10;0.10;;;8.20;99.90;;;;;;5061701;28;20223;-81
2023/04/13 05:06:19;;;;;;;0.10;0.10;;;8.30;99.90;;;;;;5066370;28;20266;-81
2023/04/13 05:08:45;;;;;;;0.10;0.10;;;8.30;99.90;;;;;;5065183;28;20272;-81
2023/04/13 05:11:10;;;;;;;0.10;0.10;;;8.30;99.90;;;;;;5066422;28;20732;-81
2023/04/13 05:13:36;;;;;;;0.10;0.10;;;8.30;99.90;;;;;;5062297;28;20234;-81
2023/04/13 05:16:04;;;;;;;0.00;0.00;;;8.30;99.90;;;;;;5062445;28;20231;-81
2023/04/13 05:18:31;;;;;;;0.10;0.10;;;8.30;99.90;;;;;;5062308;28;20186;-81
2023/04/13 05:20:57;;;;;;;0.10;0.10;;;8.40;99.90;;;;;;5062309;28;20187;-81
2023/04/13 05:23:22;;;;;;;0.10;0.10;;;8.40;99.90;;;;;;5064350;28;20774;-83
2023/04/13 05:25:48;;;;;;;0.10;0.10;;;8.40;99.90;;;;;;5064527;28;20189;-83
2023/04/13 05:28:13;;;;;;;0.10;0.10;;;8.40;99.90;;;;;;5061690;28;20721;-82
2023/04/13 05:30:39;;;;;;;0.10;0.10;;;8.40;99.90;;;;;;5063236;28;20315;-83
2023/04/13 05:33:06;;;;;;;0.10;0.10;;;8.40;99.90;;;;;;5058914;28;20253;-82
2023/04/13 05:35:32;;;;;;;0.10;0.10;;;8.40;99.90;;;;;;5062950;28;20189;-82
2023/04/13 05:37:59;;;;;;;0.10;0.10;;;8.40;99.90;;;;;;5058102;28;20189;-82
2023/04/13 05:40:25;;;;;;;0.10;0.10;;;8.40;99.90;;;;;;5065617;28;20176;-81
2023/04/13 05:42:50;;;;;;;0.10;0.10;;;8.40;99.90;;;;;;5066784;28;21046;-82
2023/04/13 05:45:16;;;;;;;0.10;0.10;;;8.40;99.90;;;;;;5082223;28;20619;-81
2023/04/13 05:47:43;;;;;;;0.10;0.10;;;8.40;99.90;;;;;;5066644;28;20195;-81
2023/04/13 05:50:09;;;;;;;0.10;0.10;;;8.40;99.90;;;;;;5063269;28;20187;-82
2023/04/13 05:52:35;;;;;;;0.10;0.10;;;8.40;99.90;;;;;;5060201;28;20288;-81
2023/04/13 05:55:01;;;;;;;0.10;0.10;;;8.40;99.90;;;;;;5063761;28;20263;-82
2023/04/13 05:57:26;;;;;;;0.10;0.10;;;8.30;99.90;;;;;;5063478;28;20179;-82
2023/04/13 05:59:52;;;;;;;0.10;0.10;;;8.40;99.90;;;;;;5061682;28;20777;-82
2023/04/13 06:02:18;;;;;;;0.10;0.10;;;8.40;99.90;;;;;;5060507;28;20200;-82
2023/04/13 06:04:44;;;;;;;0.10;0.10;;;8.40;99.90;;;;;;5063395;28;20216;-81
2023/04/13 06:07:10;;;;;;;0.10;0.10;;;8.40;99.90;;;;;;5064604;28;20216;-81
2023/04/13 06:09:35;;;;;;;0.10;0.10;;;8.50;99.90;;;;;;5064883;28;20220;-82
2023/04/13 06:12:01;;;;;;;0.10;0.10;;;8.50;99.90;;;;;;5064811;28;20262;-82
2023/04/13 06:14:27;;;;;;;0.10;0.10;;;8.60;99.90;;;;;;5064825;28;20207;-82
2023/04/13 06:16:52;;;;;;;0.10;0.10;;;8.60;99.90;;;;;;5065288;28;20282;-81
2023/04/13 06:19:18;;;;;;;0.10;0.10;;;8.50;99.90;;;;;;5067850;28;20287;-82
2023/04/13 06:21:43;;;;;;;0.10;0.10;;;8.60;99.90;;;;;;5066527;28;20695;-81
2023/04/13 06:24:09;;;;;;;0.10;0.10;;;8.60;99.90;;;;;;5066369;28;20208;-81
2023/04/13 06:26:35;;;;;;;0.10;0.10;;;8.70;99.90;;;;;;5067615;28;20173;-81
2023/04/13 06:29:01;;;;;;;0.10;0.10;;;8.70;99.90;;;;;;5059172;28;20654;-81
2023/04/13 06:31:27;;;;;;;0.10;0.10;;;8.70;99.90;;;;;;5063190;28;20189;-81
2023/04/13 06:33:53;;;;;;;0.10;0.10;;;8.80;99.90;;;;;;5065044;28;20217;-81
2023/04/13 06:36:18;;;;;;;0.10;0.10;;;8.80;99.90;;;;;;5064798;28;21010;-81
2023/04/13 06:38:44;;;;;;;0.10;0.10;;;8.80;99.90;;;;;;5065912;28;20196;-81
2023/04/13 06:41:10;;;;;;;0.10;0.10;;;8.80;99.90;;;;;;5058708;28;20195;-80
2023/04/13 06:43:36;;;;;;;0.10;0.10;;;8.80;99.90;;;;;;5063883;28;20234;-80
2023/04/13 06:46:03;;;;;;;0.10;0.10;;;8.70;99.90;;;;;;5060543;28;20189;-81
2023/04/13 06:48:29;;;;;;;0.10;0.10;;;8.70;99.90;;;;;;5060792;28;20242;-82
2023/04/13 06:50:55;;;;;;;0.10;0.10;;;8.70;99.90;;;;;;5063281;28;20192;-82
2023/04/13 06:53:21;;;;;;;0.10;0.10;;;8.70;99.90;;;;;;5058719;28;20682;-81
2023/04/13 06:55:47;;;;;;;0.10;0.10;;;8.80;99.90;;;;;;5055004;28;20249;-81
2023/04/13 06:58:12;;;;;;;0.10;0.10;;;8.70;99.90;;;;;;5062905;28;20650;-82
2023/04/13 07:00:38;;;;;;;0.10;0.10;;;8.80;99.90;;;;;;5067597;28;20205;-82
2023/04/13 07:03:03;;;;;;;0.10;0.10;;;8.80;99.90;;;;;;5072025;28;20243;-82
2023/04/13 07:05:29;;;;;;;0.10;0.10;;;8.80;99.90;;;;;;5067571;28;20216;-82
2023/04/13 07:07:55;;;;;;;0.10;0.10;;;9.00;99.90;;;;;;5069185;28;20260;-82
2023/04/13 07:10:21;;;;;;;0.10;0.10;;;9.00;99.90;;;;;;5069190;28;20185;-82
2023/04/13 07:12:47;;;;;;;0.10;0.10;;;9.00;99.90;;;;;;5069074;28;20580;-82
2023/04/13 07:15:13;;;;;;;0.10;0.10;;;9.00;99.90;;;;;;5071956;28;20298;-82
2023/04/13 07:17:39;;;;;;;0.10;0.10;;;9.10;99.90;;;;;;5071996;28;20187;-82
2023/04/13 07:20:06;;;;;;;0.10;0.10;;;9.00;99.90;;;;;;5071496;28;20191;-82
2023/04/13 07:22:34;;;;;;;0.10;0.10;;;9.00;99.90;;;;;;5072834;28;20185;-82
2023/04/13 07:25:00;;;;;;;0.10;0.10;;;9.00;99.90;;;;;;5071241;28;20241;-82
2023/04/13 07:27:26;;;;;;;0.10;0.10;;;9.00;99.90;;;;;;5072114;28;20195;-82
2023/04/13 07:29:52;;;;;;;0.10;0.10;;;9.00;99.90;;;;;;5067531;28;20626;-83
2023/04/13 07:32:19;;;;;;;0.10;0.10;;;9.00;99.90;;;;;;5070058;28;20231;-82
2023/04/13 07:34:44;;;;;;;0.10;0.10;;;9.10;99.90;;;;;;5076134;28;20613;-81
2023/04/13 07:37:10;;;;;;;0.10;0.10;;;9.10;99.90;;;;;;5074499;28;20177;-82
2023/04/13 07:39:35;;;;;;;0.10;0.10;;;9.10;99.90;;;;;;5072882;28;20185;-82
2023/04/13 07:42:01;;;;;;;0.10;0.10;;;9.10;99.90;;;;;;5066150;28;20253;-82
2023/04/13 07:44:27;;;;;;;0.10;0.10;;;9.10;99.90;;;;;;5071840;28;20293;-82
2023/04/13 07:46:55;;;;;;;0.10;0.10;;;9.20;99.90;;;;;;5071086;28;20249;-82
2023/04/13 07:49:22;;;;;;;0.10;0.10;;;9.30;99.90;;;;;;5071501;28;20189;-82
2023/04/13 07:51:48;;;;;;;0.10;0.10;;;9.40;99.90;;;;;;5071337;28;20723;-82
2023/04/13 07:54:15;;;;;;;0.10;0.10;;;9.40;99.90;;;;;;5064076;28;20212;-82
2023/04/13 07:56:41;;;;;;;0.10;0.10;;;9.30;99.90;;;;;;5070561;28;20188;-82
2023/04/13 07:59:06;;;;;;;0.10;0.10;;;9.30;99.90;;;;;;5066687;28;20211;-82
2023/04/13 08:01:32;;;;;;;0.10;0.10;;;9.10;99.90;;;;;;5064571;28;20548;-82
2023/04/13 08:03:57;;;;;;;0.10;0.10;;;9.00;99.90;;;;;;5069458;28;20656;-82
2023/04/13 08:06:23;;;;;;;0.10;0.10;;;9.00;99.90;;;;;;5067088;28;20194;-81
2023/04/13 08:08:48;;;;;;;0.10;0.10;;;9.00;99.90;;;;;;5070737;28;20195;-81
2023/04/13 08:11:15;;;;;;;0.10;0.10;;;9.00;99.90;;;;;;5065646;28;20269;-82
2023/04/13 08:13:40;;;;;;;0.10;0.10;;;9.10;99.90;;;;;;5067920;28;20327;-82
2023/04/13 08:16:07;;;;;;;0.10;0.10;;;9.10;99.90;;;;;;5065343;28;20206;-82
2023/04/13 08:18:33;;;;;;;0.10;0.10;;;9.30;99.90;;;;;;5066771;28;20189;-81
2023/04/13 08:20:58;;;;;;;0.10;0.10;;;9.40;99.90;;;;;;5067315;28;20278;-81
2023/04/13 08:23:24;;;;;;;0.10;0.10;;;9.40;99.90;;;;;;5067995;28;20257;-80
2023/04/13 08:25:50;;;;;;;0.10;0.10;;;9.50;99.90;;;;;;5062923;28;20575;-80
2023/04/13 08:28:16;;;;;;;0.10;0.10;;;9.60;99.90;;;;;;5063220;28;20192;-80
2023/04/13 08:30:41;;;;;;;0.10;0.10;;;9.70;99.90;;;;;;5066886;28;20196;-80
2023/04/13 08:33:07;;;;;;;0.10;0.10;;;9.70;99.90;;;;;;5064670;28;20613;-80
2023/04/13 08:35:37;;;;;;;0.10;0.10;;;9.70;99.90;;;;;;5067763;28;20184;-81
2023/04/13 08:38:07;;;;;;;0.10;0.10;;;9.70;99.90;;;;;;5068739;28;20185;-81
2023/04/13 08:40:37;;;;;;;0.10;0.10;;;9.60;99.90;;;;;;5069389;28;20187;-80
2023/04/13 08:43:03;;;;;;;0.10;0.10;;;9.70;99.90;;;;;;5064652;28;20186;-81
2023/04/13 08:45:29;;;;;;;0.10;0.10;;;9.80;99.90;;;;;;5064968;28;20253;-81
2023/04/13 08:47:57;;;;;;;0.10;0.10;;;9.80;99.90;;;;;;5060726;28;20747;-80
2023/04/13 08:50:24;;;;;;;0.10;0.10;;;9.90;99.90;;;;;;5069824;28;20298;-81
2023/04/13 08:52:50;;;;;;;0.10;0.10;;;9.80;99.90;;;;;;5063484;28;20378;-81
2023/04/13 08:55:16;;;;;;;0.10;0.10;;;10.00;99.90;;;;;;5066853;28;20902;-81
2023/04/13 08:57:43;;;;;;;0.10;0.10;;;10.20;99.90;;;;;;5069199;28;20251;-81
2023/04/13 09:00:15;;;;;;;0.10;0.10;;;10.10;99.90;;;;;;5067608;28;20188;-81
2023/04/13 09:02:46;;;;;;;0.10;0.10;;;10.10;99.90;;;;;;5066547;28;20197;-81
2023/04/13 09:05:16;;;;;;;0.10;0.10;;;10.00;99.90;;;;;;5067566;28;20209;-80
2023/04/13 09:07:50;;;;;;;0.10;0.10;;;10.10;99.90;;;;;;5067919;28;20183;-81
2023/04/13 09:10:17;;;;;;;0.10;0.10;;;10.20;99.90;;;;;;5066645;28;20186;-81
2023/04/13 09:12:43;;;;;;;0.10;0.10;;;10.40;99.90;;;;;;5071611;28;20208;-81
2023/04/13 09:15:12;;;;;;;0.10;0.10;;;10.20;99.90;;;;;;5070825;28;20216;-81
2023/04/13 09:17:38;;;;;;;0.10;0.10;;;10.30;99.90;;;;;;5069176;28;20559;-81
2023/04/13 09:20:16;;;;;;;0.10;0.10;;;10.40;99.90;;;;;;5069354;28;20177;-81
2023/04/13 09:22:42;;;;;;;0.10;0.10;;;10.30;99.90;;;;;;5063954;28;20180;-81
2023/04/13 09:25:28;;;;;;;0.10;0.10;;;10.30;99.90;;;;;;5069586;28;20209;-81
2023/04/13 09:27:58;;;;;;;0.10;0.10;;;10.30;99.90;;;;;;5065491;28;21280;-81
2023/04/13 09:30:28;;;;;;;0.10;0.10;;;10.30;99.90;;;;;;5066710;28;20203;-81
2023/04/13 09:33:05;;;;;;;0.07;0.07;;;10.40;99.90;;;;;;5061857;28;20220;-81
2023/04/13 09:35:31;;;;;;;0.10;0.10;;;10.50;99.90;;;;;;5068296;28;20180;-80
2023/04/13 09:37:57;;;;;;;0.10;0.10;;;10.50;99.90;;;;;;5064909;28;20587;-82
2023/04/13 09:40:23;;;;;;;0.10;0.10;;;10.40;99.90;;;;;;5064580;28;20190;-82
2023/04/13 09:43:01;;;;;;;0.10;0.10;;;10.30;99.90;;;;;;5056940;28;20189;-81
2023/04/13 09:45:33;;;;;;;0.10;0.10;;;10.20;99.90;;;;;;5055652;28;20255;-81
2023/04/13 09:48:01;;;;;;;0.10;0.10;;;10.40;99.90;;;;;;5062113;28;20230;-81
2023/04/13 09:50:27;;;;;;;0.10;0.10;;;10.60;99.90;;;;;;5064151;28;20185;-81
2023/04/13 09:53:06;;;;;;;0.10;0.10;;;10.90;99.90;;;;;;5064465;28;20213;-82
2023/04/13 09:55:33;;;;;;;0.10;0.10;;;11.00;99.90;;;;;;5058785;28;20185;-81
2023/04/13 09:58:12;;;;;;;0.10;0.10;;;11.10;99.90;;;;;;5066332;28;20176;-82
2023/04/13 10:00:40;;;;;;;0.10;0.10;;;11.20;99.90;;;;;;5063791;28;20204;-82
2023/04/13 10:03:11;;;;;;;0.10;0.10;;;11.20;99.90;;;;;;5065663;28;20192;-82
2023/04/13 10:05:38;;;;;;;0.10;0.10;;;11.30;99.90;;;;;;5066146;28;20185;-82
2023/04/13 10:08:05;;;;;;;0.10;0.10;;;11.60;99.90;;;;;;5062213;28;20196;-81
2023/04/13 10:10:31;;;;;;;0.10;0.10;;;11.80;99.90;;;;;;5065669;28;20191;-82
2023/04/13 10:13:00;;;;;;;0.10;0.10;;;12.00;99.90;;;;;;5063809;28;20204;-82
2023/04/13 10:16:11;;;;;;;0.10;0.10;;;12.20;99.90;;;;;;5061565;28;20207;-82
2023/04/13 10:19:00;;;;;;;0.10;0.10;;;12.20;99.90;;;;;;5061012;28;20192;-81
2023/04/13 10:21:34;;;;;;;0.10;0.10;;;12.10;99.90;;;;;;5064944;28;20185;-82
2023/04/13 10:24:01;;;;;;;0.10;0.10;;;12.10;99.90;;;;;;5065966;28;20726;-82
2023/04/13 10:26:35;;;;;;;0.10;0.10;;;12.30;99.90;;;;;;5067706;28;20185;-82
2023/04/13 10:29:02;;;;;;;0.10;0.10;;;12.20;99.90;;;;;;5060084;28;20201;-82
2023/04/13 10:31:38;;;;;;;0.10;0.10;;;12.40;99.90;;;;;;5062896;28;20219;-84
2023/04/13 10:34:08;;;;;;;0.00;0.00;;;12.40;99.90;;;;;;5057336;28;20205;-83
2023/04/13 10:36:45;;;;;;;0.10;0.10;;;13.00;99.90;;;;;;5061981;28;20584;-82
2023/04/13 10:39:26;;;;;;;0.10;0.10;;;13.20;99.90;;;;;;5061379;28;20250;-83
2023/04/13 10:42:00;;;;;;;0.10;0.10;;;13.70;99.90;;;;;;5066379;28;20750;-82
2023/04/13 10:44:26;;;;;;;0.10;0.10;;;13.90;99.90;;;;;;5061283;28;20213;-83
2023/04/13 10:46:52;;;;;;;0.10;0.10;;;14.20;99.90;;;;;;5067735;28;20221;-82
2023/04/13 10:49:29;;;;;;;0.10;0.10;;;14.00;99.90;;;;;;5063217;28;20223;-83
2023/04/13 10:51:55;;;;;;;0.10;0.10;;;13.80;99.90;;;;;;5068987;28;20184;-81
2023/04/13 10:54:21;;;;;;;0.10;0.10;;;13.10;99.90;;;;;;5064705;28;21116;-82
2023/04/13 10:57:01;;;;;;;0.10;0.10;;;12.50;99.90;;;;;;5059870;28;20215;-82
2023/04/13 10:59:43;;;;;;;0.10;0.10;;;11.80;99.90;;;;;;5061732;28;20693;-83
2023/04/13 11:02:14;;;;;;;0.10;0.10;;;11.70;99.90;;;;;;5065765;28;20237;-83
2023/04/13 11:04:45;;;;;;;0.10;0.10;;;11.90;99.90;;;;;;5067940;28;20251;-83
2023/04/13 11:07:16;;;;;;;0.10;0.10;;;12.00;99.90;;;;;;5062777;28;20192;-82
2023/04/13 11:09:44;;;;;;;0.10;0.10;;;12.40;99.90;;;;;;5067838;28;20939;-83
2023/04/13 11:12:13;;;;;;;0.10;0.10;;;12.70;99.90;;;;;;5064584;28;20205;-84
2023/04/13 11:14:39;;;;;;;0.10;0.10;;;12.90;99.90;;;;;;5060579;28;20212;-83
2023/04/13 11:17:06;;;;;;;0.10;0.10;;;12.90;99.90;;;;;;5059433;28;20173;-83
2023/04/13 11:19:33;;;;;;;0.10;0.10;;;13.10;99.90;;;;;;5063924;28;20185;-82
2023/04/13 11:22:00;;;;;;;0.10;0.10;;;13.00;99.90;;;;;;5060101;28;20188;-83
2023/04/13 11:24:27;;;;;;;0.10;0.10;;;13.00;99.90;;;;;;5068769;28;20683;-83
2023/04/13 11:26:53;;;;;;;0.10;0.10;;;13.10;99.90;;;;;;5067024;28;20199;-84
2023/04/13 11:29:20;;;;;;;0.10;0.10;;;13.50;99.90;;;;;;5059269;28;20181;-85
2023/04/13 11:31:46;;;;;;;0.10;0.10;;;13.40;99.90;;;;;;5056912;28;20186;-85
2023/04/13 11:34:21;;;;;;;0.10;0.10;;;13.50;99.90;;;;;;5059690;28;20201;-84
2023/04/13 11:36:48;;;;;;;0.10;0.10;;;13.60;99.90;;;;;;5062658;28;20706;-84
2023/04/13 11:39:14;;;;;;;0.10;0.10;;;13.90;99.90;;;;;;5064496;28;20183;-83
2023/04/13 11:41:40;;;;;;;0.00;0.00;;;13.90;99.90;;;;;;5067405;28;20249;-83
2023/04/13 11:44:05;;;;;;;0.10;0.10;;;13.80;99.90;;;;;;5069679;28;20205;-84
2023/04/13 11:46:31;;;;;;;0.10;0.10;;;13.50;99.90;;;;;;5064550;28;20617;-84
2023/04/13 11:48:57;;;;;;;0.10;0.10;;;13.70;99.90;;;;;;5067613;28;20195;-84
2023/04/13 11:51:24;;;;;;;0.10;0.10;;;13.90;99.90;;;;;;5065924;28;20189;-84
2023/04/13 11:53:50;;;;;;;0.10;0.10;;;14.00;99.90;;;;;;5061756;28;20335;-84
2023/04/13 11:56:17;;;;;;;0.10;0.10;;;14.30;99.90;;;;;;5068270;28;20254;-84
2023/04/13 11:58:42;;;;;;;0.10;0.10;;;14.50;99.90;;;;;;5061080;28;20220;-83
2023/04/13 12:01:09;;;;;;;0.10;0.10;;;14.50;99.90;;;;;;5061572;28;20187;-85
2023/04/13 12:03:36;;;;;;;0.10;0.10;;;14.70;99.90;;;;;;5061224;28;20222;-84
2023/04/13 12:06:02;;;;;;;0.10;0.10;;;15.00;99.90;;;;;;5064446;28;20348;-84
2023/04/13 12:08:28;;;;;;;0.10;0.10;;;14.70;99.90;;;;;;5062358;28;20184;-83
2023/04/13 12:11:03;;;;;;;0.10;0.10;;;15.10;99.90;;;;;;5060347;28;20187;-83
2023/04/13 12:13:39;;;;;;;0.10;0.10;;;15.20;99.90;;;;;;5061217;28;21184;-84
2023/04/13 12:16:05;;;;;;;0.10;0.10;;;14.70;99.90;;;;;;5057765;28;20592;-84
2023/04/13 12:18:31;;;;;;;0.10;0.10;;;15.10;99.90;;;;;;5062816;28;20187;-85
2023/04/13 12:20:59;;;;;;;0.10;0.10;;;14.90;99.90;;;;;;5064861;28;20183;-83
2023/04/13 12:23:26;;;;;;;0.10;0.10;;;14.80;99.90;;;;;;5061173;28;20211;-83
2023/04/13 12:25:59;;;;;;;0.10;0.10;;;14.50;99.90;;;;;;5063277;28;20211;-84
2023/04/13 12:28:32;;;;;;;0.10;0.10;;;14.20;99.90;;;;;;5061598;28;20187;-83
2023/04/13 12:31:11;;;;;;;0.10;0.10;;;13.60;99.90;;;;;;5060880;28;20480;-84
2023/04/13 12:33:37;;;;;;;0.10;0.10;;;13.20;99.90;;;;;;5059099;28;20216;-84
2023/04/13 12:36:10;;;;;;;0.10;0.10;;;12.80;99.90;;;;;;5064836;28;20193;-84
2023/04/13 12:38:36;;;;;;;0.10;0.10;;;12.40;99.90;;;;;;5062114;28;20201;-83
2023/04/13 12:41:02;;;;;;;0.10;0.10;;;12.00;99.90;;;;;;5059422;28;21012;-83
2023/04/13 12:43:28;;;;;;;0.10;0.10;;;11.90;99.90;;;;;;5060779;28;20208;-82
2023/04/13 12:45:53;;;;;;;0.10;0.10;;;11.60;99.90;;;;;;5065590;28;20190;-82
2023/04/13 12:48:20;;;;;;;0.10;0.10;;;11.50;99.90;;;;;;5060952;28;20188;-82
2023/04/13 12:50:45;;;;;;;0.10;0.10;;;11.30;99.90;;;;;;5061288;28;20199;-82
2023/04/13 12:53:11;;;;;;;0.10;0.10;;;10.80;99.90;;;;;;5065976;28;20208;-82
2023/04/13 12:55:37;;;;;;;0.10;0.10;;;10.60;99.90;;;;;;5057148;28;20189;-82